createdAt,value
2018-01-05T00:00:23.754Z,0
2018-01-05T00:00:52.629Z,0
2018-01-05T00:01:36.474Z,0
2018-01-05T00:02:18.944Z,0
2018-01-05T00:02:47.388Z,0
2018-01-05T00:03:36.455Z,0
2018-01-05T00:04:06.313Z,0
2018-01-05T00:04:35.298Z,0
2018-01-05T00:05:04.156Z,0
2018-01-05T00:05:33.729Z,0
2018-01-05T00:06:31.587Z,0
2018-01-05T00:07:14.552Z,0
2018-01-05T00:07:42.593Z,0
2018-01-05T00:08:10.832Z,0
2018-01-05T00:08:40.294Z,0
2018-01-05T00:09:09.365Z,0
2018-01-05T00:09:37.328Z,0
2018-01-05T00:10:34.369Z,0
2018-01-05T00:11:03.676Z,0
2018-01-05T00:11:32.194Z,0
2018-01-05T00:12:00.479Z,0
2018-01-05T00:15:35.242Z,0
2018-01-05T00:16:04.118Z,0
2018-01-05T00:16:47.678Z,0
2018-01-05T00:17:16.571Z,0
2018-01-05T00:18:28.458Z,0
2018-01-05T00:18:57.321Z,0
2018-01-05T00:19:26.309Z,0
2018-01-05T00:19:54.321Z,0
2018-01-05T00:20:23.412Z,0
2018-01-05T00:20:51.944Z,0
2018-01-05T00:21:20.411Z,0
2018-01-05T00:21:48.772Z,0
2018-01-05T00:22:47.394Z,0
2018-01-05T00:23:16.628Z,0
2018-01-05T00:23:45.357Z,0
2018-01-05T00:24:14.302Z,0
2018-01-05T00:25:12.859Z,0
2018-01-05T00:25:41.967Z,0
2018-01-05T00:26:10.415Z,0
2018-01-05T00:28:05.218Z,0
2018-01-05T00:29:17.944Z,0
2018-01-05T00:30:59.268Z,0
2018-01-05T00:31:27.471Z,0
2018-01-05T00:31:55.480Z,0
2018-01-05T00:32:24.352Z,0
2018-01-05T00:32:54.583Z,0
2018-01-05T00:33:23.918Z,0
2018-01-05T00:34:07.160Z,0
2018-01-05T00:34:50.943Z,0
2018-01-05T00:35:18.988Z,0
2018-01-05T00:36:44.839Z,0
2018-01-05T00:37:56.446Z,0
2018-01-05T00:38:25.605Z,0
2018-01-05T00:39:08.583Z,0
2018-01-05T00:40:36.060Z,0
2018-01-05T00:42:31.510Z,0
2018-01-05T00:43:58.631Z,0
2018-01-05T00:44:28.822Z,0
2018-01-05T00:44:56.769Z,0
2018-01-05T00:45:24.818Z,0
2018-01-05T00:45:53.254Z,0
2018-01-05T00:46:35.804Z,0
2018-01-05T00:47:03.836Z,0
2018-01-05T00:47:47.755Z,0
2018-01-05T00:48:31.325Z,0
2018-01-05T00:49:00.652Z,0
2018-01-05T00:50:22.887Z,0
2018-01-05T00:50:50.944Z,0
2018-01-05T00:51:35.098Z,0
2018-01-05T00:52:03.137Z,0
2018-01-05T00:52:33.192Z,0
2018-01-05T00:53:30.252Z,0
2018-01-05T00:54:30.498Z,0
2018-01-05T00:54:59.220Z,0
2018-01-05T00:56:12.277Z,0
2018-01-05T00:56:41.058Z,0
2018-01-05T00:57:09.876Z,0
2018-01-05T00:57:53.814Z,0
2018-01-05T00:58:22.053Z,0
2018-01-05T00:58:51.966Z,0
2018-01-05T00:59:20.348Z,0
2018-01-05T01:00:02.892Z,0
2018-01-05T01:00:47.114Z,0
2018-01-05T01:01:15.591Z,0
2018-01-05T01:01:47.897Z,0
2018-01-05T01:02:17.085Z,0
2018-01-05T01:02:46.149Z,0
2018-01-05T01:03:14.598Z,0
2018-01-05T01:03:42.641Z,0
2018-01-05T01:04:10.678Z,0
2018-01-05T01:08:57.502Z,0
2018-01-05T01:10:22.615Z,0
2018-01-05T01:10:51.606Z,0
2018-01-05T01:11:20.071Z,0
2018-01-05T01:11:48.104Z,0
2018-01-05T01:13:15.175Z,0
2018-01-05T01:13:59.041Z,0
2018-01-05T01:15:27.890Z,0
2018-01-05T01:16:02.693Z,0
2018-01-05T01:16:32.406Z,0
2018-01-05T01:17:00.974Z,0
2018-01-05T01:17:29.374Z,0
2018-01-05T01:18:41.475Z,0
2018-01-05T01:19:09.418Z,0
2018-01-05T01:21:05.211Z,0
2018-01-05T01:22:06.159Z,0
2018-01-05T01:22:34.528Z,0
2018-01-05T01:23:03.390Z,0
2018-01-05T01:23:33.644Z,0
2018-01-05T01:24:02.483Z,0
2018-01-05T01:27:14.370Z,0
2018-01-05T01:27:42.302Z,0
2018-01-05T01:28:12.416Z,0
2018-01-05T01:29:10.576Z,0
2018-01-05T01:29:39.018Z,0
2018-01-05T01:30:07.470Z,0
2018-01-05T01:32:02.184Z,0
2018-01-05T01:32:46.454Z,0
2018-01-05T01:33:15.264Z,0
2018-01-05T01:33:43.607Z,0
2018-01-05T01:35:24.005Z,0
2018-01-05T01:36:07.078Z,0
2018-01-05T01:37:53.229Z,0
2018-01-05T01:38:21.697Z,0
2018-01-05T01:39:34.047Z,0
2018-01-05T01:40:02.989Z,0
2018-01-05T01:40:35.993Z,0
2018-01-05T01:41:04.002Z,0
2018-01-05T01:42:44.288Z,0
2018-01-05T01:43:27.262Z,0
2018-01-05T01:43:55.909Z,0
2018-01-05T01:48:01.331Z,0
2018-01-05T01:48:45.088Z,0
2018-01-05T01:49:13.121Z,0
2018-01-05T01:49:41.600Z,0
2018-01-05T01:51:09.119Z,0
2018-01-05T01:52:06.628Z,0
2018-01-05T01:52:36.887Z,0
2018-01-05T01:53:05.561Z,0
2018-01-05T01:53:33.801Z,0
2018-01-05T01:55:15.188Z,0
2018-01-05T01:56:57.604Z,0
2018-01-05T01:57:41.166Z,0
2018-01-05T01:58:09.889Z,0
2018-01-05T01:58:38.063Z,0
2018-01-05T02:01:28.700Z,0
2018-01-05T02:02:12.894Z,0
2018-01-05T02:02:41.614Z,0
2018-01-05T02:03:26.159Z,0
2018-01-05T02:03:56.186Z,0
2018-01-05T02:04:25.415Z,0
2018-01-05T02:04:54.205Z,0
2018-01-05T02:05:51.747Z,0
2018-01-05T02:06:20.081Z,0
2018-01-05T02:07:07.678Z,0
2018-01-05T02:07:36.897Z,0
2018-01-05T02:08:05.710Z,0
2018-01-05T02:08:36.179Z,0
2018-01-05T02:09:04.217Z,0
2018-01-05T02:09:47.572Z,0
2018-01-05T02:11:15.441Z,0
2018-01-05T02:11:44.085Z,0
2018-01-05T02:12:12.528Z,0
2018-01-05T02:12:41.368Z,0
2018-01-05T02:14:21.072Z,0
2018-01-05T02:14:49.248Z,0
2018-01-05T02:15:17.873Z,0
2018-01-05T02:16:16.326Z,0
2018-01-05T02:17:01.778Z,0
2018-01-05T02:17:30.097Z,0
2018-01-05T02:17:58.932Z,0
2018-01-05T02:18:27.455Z,0
2018-01-05T02:18:55.519Z,0
2018-01-05T02:19:37.957Z,0
2018-01-05T02:20:06.402Z,0
2018-01-05T02:20:34.989Z,0
2018-01-05T02:21:03.349Z,0
2018-01-05T02:21:32.392Z,0
2018-01-05T02:23:15.114Z,0
2018-01-05T02:23:43.151Z,0
2018-01-05T02:25:09.280Z,0
2018-01-05T02:25:38.510Z,0
2018-01-05T02:26:22.268Z,0
2018-01-05T02:26:53.300Z,0
2018-01-05T02:27:22.531Z,0
2018-01-05T02:27:54.840Z,0
2018-01-05T02:28:25.166Z,0
2018-01-05T02:29:53.456Z,0
2018-01-05T02:30:21.824Z,0
2018-01-05T02:30:55.741Z,0
2018-01-05T02:31:52.816Z,0
2018-01-05T02:34:11.575Z,0
2018-01-05T02:34:39.594Z,0
2018-01-05T02:35:08.117Z,0
2018-01-05T02:35:41.199Z,0
2018-01-05T02:36:10.826Z,0
2018-01-05T02:36:40.752Z,0
2018-01-05T02:37:09.028Z,0
2018-01-05T02:38:06.773Z,0
2018-01-05T02:38:50.553Z,0
2018-01-05T02:39:19.551Z,0
2018-01-05T02:39:48.391Z,0
2018-01-05T02:40:31.470Z,0
2018-01-05T02:41:14.332Z,0
2018-01-05T02:41:43.827Z,0
2018-01-05T02:42:12.506Z,0
2018-01-05T02:42:56.837Z,0
2018-01-05T02:43:40.181Z,0
2018-01-05T02:45:06.139Z,0
2018-01-05T02:45:35.245Z,0
2018-01-05T02:46:33.012Z,0
2018-01-05T02:47:01.711Z,0
2018-01-05T02:47:44.686Z,0
2018-01-05T02:48:17.806Z,0
2018-01-05T02:48:46.265Z,0
2018-01-05T02:49:14.268Z,0
2018-01-05T02:49:43.900Z,0
2018-01-05T02:50:27.505Z,0
2018-01-05T02:50:55.970Z,0
2018-01-05T02:52:35.630Z,0
2018-01-05T02:53:19.021Z,0
2018-01-05T02:53:46.971Z,0
2018-01-05T02:54:32.085Z,0
2018-01-05T02:55:15.059Z,0
2018-01-05T02:55:43.882Z,0
2018-01-05T02:57:10.553Z,0
2018-01-05T02:57:40.212Z,0
2018-01-05T02:58:10.584Z,0
2018-01-05T02:58:39.147Z,0
2018-01-05T02:59:52.630Z,0
2018-01-05T03:01:19.492Z,0
2018-01-05T03:01:48.650Z,0
2018-01-05T03:02:32.100Z,0
2018-01-05T03:03:00.553Z,0
2018-01-05T03:03:47.728Z,0
2018-01-05T03:04:17.964Z,0
2018-01-05T03:04:47.494Z,0
2018-01-05T03:05:16.039Z,0
2018-01-05T03:06:42.002Z,0
2018-01-05T03:07:11.157Z,0
2018-01-05T03:07:54.829Z,0
2018-01-05T03:08:24.445Z,0
2018-01-05T03:08:53.600Z,0
2018-01-05T03:11:02.662Z,0
2018-01-05T03:14:32.028Z,0
2018-01-05T03:15:02.027Z,0
2018-01-05T03:15:30.749Z,0
2018-01-05T03:15:59.440Z,0
2018-01-05T03:16:28.564Z,0
2018-01-05T03:16:56.942Z,0
2018-01-05T03:17:44.598Z,0
2018-01-05T03:18:13.831Z,0
2018-01-05T03:18:52.566Z,0
2018-01-05T03:19:22.373Z,0
2018-01-05T03:19:50.298Z,0
2018-01-05T03:20:21.010Z,0
2018-01-05T03:20:49.210Z,0
2018-01-05T03:22:02.004Z,0
2018-01-05T03:22:30.276Z,0
2018-01-05T03:22:58.321Z,0
2018-01-05T03:23:27.585Z,0
2018-01-05T03:23:57.085Z,0
2018-01-05T03:26:06.994Z,0
2018-01-05T03:26:49.521Z,0
2018-01-05T03:28:59.411Z,0
2018-01-05T03:29:28.825Z,0
2018-01-05T03:29:59.177Z,0
2018-01-05T03:30:27.232Z,0
2018-01-05T03:30:56.064Z,0
2018-01-05T03:31:24.499Z,0
2018-01-05T03:31:53.046Z,0
2018-01-05T03:33:50.883Z,0
2018-01-05T03:35:46.322Z,0
2018-01-05T03:36:33.810Z,0
2018-01-05T03:37:23.509Z,0
2018-01-05T03:38:06.656Z,0
2018-01-05T03:39:03.982Z,0
2018-01-05T03:39:34.268Z,0
2018-01-05T03:40:02.317Z,0
2018-01-05T03:41:19.165Z,0
2018-01-05T03:41:47.473Z,0
2018-01-05T03:42:16.705Z,0
2018-01-05T03:42:44.719Z,0
2018-01-05T03:43:13.593Z,0
2018-01-05T03:43:56.362Z,0
2018-01-05T03:44:24.390Z,0
2018-01-05T03:45:08.299Z,0
2018-01-05T03:45:52.485Z,0
2018-01-05T03:46:21.516Z,0
2018-01-05T03:46:50.524Z,0
2018-01-05T03:47:48.708Z,0
2018-01-05T03:48:31.515Z,0
2018-01-05T03:49:00.395Z,0
2018-01-05T03:51:10.272Z,0
2018-01-05T03:51:41.836Z,0
2018-01-05T03:52:10.449Z,0
2018-01-05T03:53:50.229Z,0
2018-01-05T03:54:19.994Z,0
2018-01-05T03:54:49.197Z,0
2018-01-05T03:55:17.511Z,0
2018-01-05T03:55:46.813Z,0
2018-01-05T03:56:15.304Z,0
2018-01-05T03:56:58.278Z,0
2018-01-05T03:57:26.714Z,0
2018-01-05T03:58:02.230Z,0
2018-01-05T03:58:30.178Z,0
2018-01-05T03:58:59.487Z,0
2018-01-05T03:59:27.470Z,0
2018-01-05T03:59:55.940Z,0
2018-01-05T04:01:07.655Z,0
2018-01-05T04:01:37.153Z,0
2018-01-05T04:02:05.975Z,0
2018-01-05T04:02:34.426Z,0
2018-01-05T04:03:04.145Z,0
2018-01-05T04:04:30.198Z,0
2018-01-05T04:04:58.588Z,0
2018-01-05T04:05:27.801Z,0
2018-01-05T04:06:40.586Z,0
2018-01-05T04:08:15.153Z,0
2018-01-05T04:08:43.082Z,0
2018-01-05T04:09:11.551Z,0
2018-01-05T04:09:40.432Z,0
2018-01-05T04:10:10.121Z,0
2018-01-05T04:10:38.082Z,0
2018-01-05T04:11:21.444Z,0
2018-01-05T04:11:50.580Z,0
2018-01-05T04:12:19.394Z,0
2018-01-05T04:13:01.935Z,0
2018-01-05T04:14:01.479Z,0
2018-01-05T04:14:30.716Z,0
2018-01-05T04:15:42.337Z,0
2018-01-05T04:16:54.270Z,0
2018-01-05T04:17:22.294Z,0
2018-01-05T04:17:52.030Z,0
2018-01-05T04:18:22.306Z,0
2018-01-05T04:18:50.355Z,0
2018-01-05T04:19:24.549Z,0
2018-01-05T04:20:22.908Z,0
2018-01-05T04:20:51.317Z,0
2018-01-05T04:21:49.426Z,0
2018-01-05T04:23:02.852Z,0
2018-01-05T04:23:45.451Z,0
2018-01-05T04:24:57.841Z,0
2018-01-05T04:27:08.105Z,0
2018-01-05T04:27:36.940Z,0
2018-01-05T04:28:34.469Z,0
2018-01-05T04:29:57.469Z,0
2018-01-05T04:30:40.693Z,0
2018-01-05T04:31:08.645Z,0
2018-01-05T04:31:37.289Z,0
2018-01-05T04:32:05.801Z,0
2018-01-05T04:32:34.171Z,0
2018-01-05T04:33:04.489Z,0
2018-01-05T04:33:35.549Z,0
2018-01-05T04:34:04.053Z,0
2018-01-05T04:34:57.304Z,0
2018-01-05T04:35:31.234Z,0
2018-01-05T04:36:00.219Z,0
2018-01-05T04:36:28.160Z,0
2018-01-05T04:38:52.546Z,0
2018-01-05T04:39:22.006Z,0
2018-01-05T04:39:50.478Z,0
2018-01-05T04:40:19.312Z,0
2018-01-05T04:40:49.281Z,0
2018-01-05T04:41:18.187Z,0
2018-01-05T04:42:02.375Z,0
2018-01-05T04:43:28.046Z,0
2018-01-05T04:43:57.288Z,0
2018-01-05T04:44:26.043Z,0
2018-01-05T04:45:38.905Z,0
2018-01-05T04:46:08.873Z,0
2018-01-05T04:46:52.078Z,0
2018-01-05T04:47:35.013Z,0
2018-01-05T04:48:03.055Z,0
2018-01-05T04:49:30.223Z,0
2018-01-05T04:49:59.029Z,0
2018-01-05T04:50:27.486Z,0
2018-01-05T04:51:10.834Z,0
2018-01-05T04:51:54.224Z,0
2018-01-05T04:52:23.053Z,0
2018-01-05T04:52:51.079Z,0
2018-01-05T04:54:03.399Z,0
2018-01-05T04:55:29.684Z,0
2018-01-05T04:55:58.517Z,0
2018-01-05T04:56:42.407Z,0
2018-01-05T04:57:10.449Z,0
2018-01-05T04:57:53.942Z,0
2018-01-05T04:58:21.944Z,0
2018-01-05T04:58:50.706Z,0
2018-01-05T04:59:20.402Z,0
2018-01-05T04:59:49.370Z,0
2018-01-05T05:00:19.073Z,0
2018-01-05T05:00:47.836Z,0
2018-01-05T05:02:58.370Z,0
2018-01-05T05:03:26.417Z,0
2018-01-05T05:03:54.460Z,0
2018-01-05T05:04:37.823Z,0
2018-01-05T05:05:07.346Z,0
2018-01-05T05:05:42.235Z,0
2018-01-05T05:06:10.982Z,0
2018-01-05T05:07:44.636Z,0
2018-01-05T05:08:14.603Z,0
2018-01-05T05:10:24.109Z,0
2018-01-05T05:10:52.595Z,0
2018-01-05T05:11:36.361Z,0
2018-01-05T05:12:04.417Z,0
2018-01-05T05:13:01.721Z,0
2018-01-05T05:13:44.350Z,0
2018-01-05T05:14:28.662Z,0
2018-01-05T05:14:57.516Z,0
2018-01-05T05:15:26.047Z,0
2018-01-05T05:15:56.102Z,0
2018-01-05T05:16:39.893Z,0
2018-01-05T05:17:08.690Z,0
2018-01-05T05:17:36.738Z,0
2018-01-05T05:20:15.630Z,0
2018-01-05T05:22:25.811Z,0
2018-01-05T05:22:53.756Z,0
2018-01-05T05:23:21.778Z,0
2018-01-05T05:23:50.676Z,0
2018-01-05T05:24:18.786Z,0
2018-01-05T05:24:48.172Z,0
2018-01-05T05:28:09.583Z,0
2018-01-05T05:28:38.166Z,0
2018-01-05T05:29:07.318Z,0
2018-01-05T05:29:35.385Z,0
2018-01-05T05:30:09.802Z,0
2018-01-05T05:31:35.822Z,0
2018-01-05T05:32:04.433Z,0
2018-01-05T05:32:32.879Z,0
2018-01-05T05:33:01.765Z,0
2018-01-05T05:33:30.659Z,0
2018-01-05T05:33:58.676Z,0
2018-01-05T05:34:26.738Z,0
2018-01-05T05:34:54.773Z,0
2018-01-05T05:35:23.217Z,0
2018-01-05T05:35:51.242Z,0
2018-01-05T05:36:20.124Z,0
2018-01-05T05:37:03.080Z,0
2018-01-05T05:37:31.146Z,0
2018-01-05T05:38:00.027Z,0
2018-01-05T05:38:28.946Z,0
2018-01-05T05:39:41.343Z,0
2018-01-05T05:40:09.712Z,0
2018-01-05T05:41:07.599Z,0
2018-01-05T05:41:50.161Z,0
2018-01-05T05:42:19.512Z,0
2018-01-05T05:43:02.003Z,0
2018-01-05T05:43:31.424Z,0
2018-01-05T05:43:59.899Z,0
2018-01-05T05:44:28.865Z,0
2018-01-05T05:44:57.206Z,0
2018-01-05T05:45:25.665Z,0
2018-01-05T05:45:54.419Z,0
2018-01-05T05:46:37.006Z,0
2018-01-05T05:47:05.520Z,0
2018-01-05T05:47:33.975Z,0
2018-01-05T05:48:02.424Z,0
2018-01-05T05:48:31.777Z,0
2018-01-05T05:49:00.178Z,0
2018-01-05T05:49:43.553Z,0
2018-01-05T05:50:13.136Z,0
2018-01-05T05:50:41.112Z,0
2018-01-05T05:51:09.145Z,0
2018-01-05T05:51:40.340Z,0
2018-01-05T05:52:09.366Z,0
2018-01-05T05:52:39.432Z,0
2018-01-05T05:53:08.358Z,0
2018-01-05T05:53:36.295Z,0
2018-01-05T05:54:04.349Z,0
2018-01-05T05:54:32.412Z,0
2018-01-05T05:55:00.446Z,0
2018-01-05T05:55:28.473Z,0
2018-01-05T05:55:56.522Z,0
2018-01-05T05:56:25.875Z,0
2018-01-05T05:56:53.827Z,0
2018-01-05T05:57:21.874Z,0
2018-01-05T05:57:50.384Z,0
2018-01-05T05:58:18.751Z,0
2018-01-05T05:58:46.787Z,0
2018-01-05T06:00:04.728Z,0
2018-01-05T06:00:33.605Z,0
2018-01-05T06:01:03.056Z,0
2018-01-05T06:01:31.874Z,0
2018-01-05T06:01:59.953Z,0
2018-01-05T06:02:28.085Z,0
2018-01-05T06:02:56.189Z,0
2018-01-05T06:03:24.230Z,0
2018-01-05T06:03:52.694Z,0
2018-01-05T06:04:36.420Z,0
2018-01-05T06:05:04.737Z,0
2018-01-05T06:05:33.728Z,0
2018-01-05T06:06:03.001Z,0
2018-01-05T06:06:31.355Z,0
2018-01-05T06:07:00.314Z,0
2018-01-05T06:07:28.736Z,0
2018-01-05T06:07:56.767Z,0
2018-01-05T06:08:24.819Z,0
2018-01-05T06:08:52.871Z,0
2018-01-05T06:09:20.908Z,0
2018-01-05T06:09:50.177Z,0
2018-01-05T06:10:18.251Z,0
2018-01-05T06:10:46.734Z,0
2018-01-05T06:11:14.778Z,0
2018-01-05T06:11:43.832Z,0
2018-01-05T06:12:14.672Z,0
2018-01-05T06:12:44.179Z,0
2018-01-05T06:13:12.562Z,0
2018-01-05T06:14:10.071Z,0
2018-01-05T06:17:17.719Z,0
2018-01-05T06:17:46.697Z,0
2018-01-05T06:18:15.647Z,0
2018-01-05T06:18:58.218Z,0
2018-01-05T06:19:27.312Z,0
2018-01-05T06:20:10.448Z,0
2018-01-05T06:20:53.446Z,0
2018-01-05T06:21:22.737Z,0
2018-01-05T06:21:50.785Z,0
2018-01-05T06:22:20.956Z,0
2018-01-05T06:22:49.018Z,0
2018-01-05T06:23:17.486Z,0
2018-01-05T06:25:59.076Z,0
2018-01-05T06:26:28.122Z,0
2018-01-05T06:26:56.784Z,0
2018-01-05T06:27:25.402Z,0
2018-01-05T06:28:08.001Z,0
2018-01-05T06:28:36.802Z,0
2018-01-05T06:29:05.698Z,0
2018-01-05T06:29:35.559Z,0
2018-01-05T06:30:20.194Z,0
2018-01-05T06:31:45.990Z,0
2018-01-05T06:32:29.833Z,0
2018-01-05T06:32:58.430Z,0
2018-01-05T06:33:56.872Z,0
2018-01-05T06:34:25.611Z,0
2018-01-05T06:35:14.928Z,0
2018-01-05T06:35:43.337Z,0
2018-01-05T06:38:01.374Z,0
2018-01-05T06:38:30.094Z,0
2018-01-05T06:38:58.138Z,0
2018-01-05T06:39:26.166Z,0
2018-01-05T06:41:05.821Z,0
2018-01-05T06:42:47.223Z,0
2018-01-05T06:44:00.307Z,0
2018-01-05T06:44:29.434Z,0
2018-01-05T06:46:24.626Z,0
2018-01-05T06:46:54.236Z,0
2018-01-05T06:47:22.288Z,0
2018-01-05T06:47:53.172Z,0
2018-01-05T06:49:05.441Z,0
2018-01-05T06:49:35.921Z,0
2018-01-05T06:50:04.443Z,0
2018-01-05T06:52:27.177Z,0
2018-01-05T06:52:55.911Z,0
2018-01-05T06:53:40.301Z,0
2018-01-05T06:55:06.600Z,0
2018-01-05T06:55:35.193Z,0
2018-01-05T06:56:03.904Z,0
2018-01-05T06:56:32.019Z,0
2018-01-05T06:57:15.368Z,0
2018-01-05T06:57:57.945Z,0
2018-01-05T06:59:25.713Z,0
2018-01-05T06:59:54.801Z,0
2018-01-05T07:01:07.658Z,0
2018-01-05T07:01:55.670Z,0
2018-01-05T07:02:38.763Z,0
2018-01-05T07:03:07.228Z,0
2018-01-05T07:03:36.198Z,0
2018-01-05T07:04:20.266Z,0
2018-01-05T07:05:04.064Z,0
2018-01-05T07:05:32.898Z,0
2018-01-05T07:06:03.021Z,0
2018-01-05T07:06:31.847Z,0
2018-01-05T07:07:15.652Z,0
2018-01-05T07:07:47.746Z,0
2018-01-05T07:08:16.180Z,0
2018-01-05T07:08:45.664Z,0
2018-01-05T07:09:15.429Z,0
2018-01-05T07:09:44.989Z,0
2018-01-05T07:10:13.825Z,0
2018-01-05T07:10:43.166Z,0
2018-01-05T07:11:28.732Z,0
2018-01-05T07:13:09.768Z,0
2018-01-05T07:13:39.032Z,0
2018-01-05T07:14:22.796Z,0
2018-01-05T07:14:51.367Z,0
2018-01-05T07:15:20.742Z,0
2018-01-05T07:16:34.305Z,0
2018-01-05T07:17:04.284Z,0
2018-01-05T07:17:32.781Z,0
2018-01-05T07:18:01.746Z,0
2018-01-05T07:19:05.676Z,0
2018-01-05T07:19:34.053Z,0
2018-01-05T07:20:02.115Z,0
2018-01-05T07:20:30.596Z,0
2018-01-05T07:20:59.521Z,0
2018-01-05T07:21:28.003Z,0
2018-01-05T07:21:56.167Z,0
2018-01-05T07:22:24.652Z,0
2018-01-05T07:23:07.665Z,0
2018-01-05T07:24:20.740Z,0
2018-01-05T07:24:50.001Z,0
2018-01-05T07:26:18.353Z,0
2018-01-05T07:27:01.172Z,0
2018-01-05T07:27:29.675Z,0
2018-01-05T07:27:59.370Z,0
2018-01-05T07:28:27.814Z,0
2018-01-05T07:29:25.884Z,0
2018-01-05T07:30:29.164Z,0
2018-01-05T07:31:41.085Z,0
2018-01-05T07:32:24.707Z,0
2018-01-05T07:32:53.088Z,0
2018-01-05T07:33:50.632Z,0
2018-01-05T07:34:36.371Z,0
2018-01-05T07:35:05.465Z,0
2018-01-05T07:35:35.947Z,0
2018-01-05T07:36:05.030Z,0
2018-01-05T07:36:35.854Z,0
2018-01-05T07:37:35.300Z,0
2018-01-05T07:38:04.578Z,0
2018-01-05T07:38:47.903Z,0
2018-01-05T07:39:31.760Z,0
2018-01-05T07:40:02.564Z,0
2018-01-05T07:40:46.938Z,0
2018-01-05T07:41:30.856Z,0
2018-01-05T07:41:59.349Z,0
2018-01-05T07:42:28.410Z,0
2018-01-05T07:43:28.326Z,0
2018-01-05T07:44:11.177Z,0
2018-01-05T07:44:53.704Z,0
2018-01-05T07:45:21.644Z,0
2018-01-05T07:45:49.703Z,0
2018-01-05T07:46:20.429Z,0
2018-01-05T07:47:33.817Z,0
2018-01-05T07:48:04.115Z,0
2018-01-05T07:48:48.282Z,0
2018-01-05T07:49:32.737Z,0
2018-01-05T07:51:31.709Z,0
2018-01-05T07:52:15.865Z,0
2018-01-05T07:52:59.207Z,0
2018-01-05T07:54:25.412Z,0
2018-01-05T07:54:53.482Z,0
2018-01-05T07:57:06.647Z,0
2018-01-05T07:58:03.946Z,0
2018-01-05T07:58:47.328Z,0
2018-01-05T07:59:31.523Z,0
2018-01-05T08:00:57.349Z,0
2018-01-05T08:01:41.562Z,0
2018-01-05T08:02:25.517Z,0
2018-01-05T08:03:09.828Z,0
2018-01-05T08:04:39.347Z,0
2018-01-05T08:06:49.671Z,0
2018-01-05T08:07:33.701Z,0
2018-01-05T08:08:31.796Z,0
2018-01-05T08:09:15.622Z,0
2018-01-05T08:09:43.798Z,0
2018-01-05T08:10:13.032Z,0
2018-01-05T08:10:41.789Z,0
2018-01-05T08:12:22.079Z,0
2018-01-05T08:12:50.942Z,0
2018-01-05T08:13:49.365Z,0
2018-01-05T08:14:47.390Z,0
2018-01-05T08:15:45.262Z,0
2018-01-05T08:16:15.061Z,0
2018-01-05T08:16:58.658Z,0
2018-01-05T08:19:12.794Z,5
2018-01-05T08:20:43.150Z,5
2018-01-05T08:21:12.397Z,5
2018-01-05T08:21:55.979Z,5
2018-01-05T08:22:53.625Z,5
2018-01-05T08:27:15.881Z,10
2018-01-05T08:28:00.109Z,15
2018-01-05T08:28:29.914Z,15
2018-01-05T08:29:00.323Z,15
2018-01-05T08:29:44.329Z,15
2018-01-05T08:30:15.071Z,15
2018-01-05T08:30:57.902Z,20
2018-01-05T08:31:40.895Z,20
2018-01-05T08:32:25.223Z,20
2018-01-05T08:33:10.895Z,25
2018-01-05T08:33:40.353Z,25
2018-01-05T08:34:23.429Z,30
2018-01-05T08:35:08.648Z,30
2018-01-05T08:36:06.741Z,35
2018-01-05T08:36:50.100Z,35
2018-01-05T08:37:47.420Z,40
2018-01-05T08:39:14.465Z,45
2018-01-05T08:39:58.418Z,50
2018-01-05T08:40:42.369Z,50
2018-01-05T08:41:10.488Z,55
2018-01-05T08:42:09.130Z,55
2018-01-05T08:42:39.043Z,60
2018-01-05T08:43:08.273Z,60
2018-01-05T08:43:52.068Z,65
2018-01-05T08:44:20.715Z,65
2018-01-05T08:44:48.961Z,65
2018-01-05T08:45:32.199Z,70
2018-01-05T08:46:00.292Z,70
2018-01-05T08:46:45.395Z,75
2018-01-05T08:47:29.418Z,80
2018-01-05T08:48:13.171Z,85
2018-01-05T08:49:10.523Z,90
2018-01-05T08:50:08.768Z,95
2018-01-05T08:50:51.880Z,100
2018-01-05T08:51:34.822Z,100
2018-01-05T08:52:04.104Z,105
2018-01-05T08:52:46.673Z,110
2018-01-05T08:53:15.668Z,115
2018-01-05T08:54:00.939Z,120
2018-01-05T08:54:58.049Z,125
2018-01-05T08:56:24.117Z,135
2018-01-05T08:56:52.654Z,135
2018-01-05T08:57:37.496Z,140
2018-01-05T08:58:20.354Z,150
2018-01-05T08:59:03.732Z,155
2018-01-05T09:00:02.362Z,160
2018-01-05T09:00:30.547Z,160
2018-01-05T09:02:11.458Z,180
2018-01-05T09:02:40.475Z,175
2018-01-05T09:03:23.485Z,180
2018-01-05T09:03:53.358Z,185
2018-01-05T09:04:51.072Z,190
2018-01-05T09:07:20.672Z,195
2018-01-05T09:07:49.040Z,190
2018-01-05T09:08:47.047Z,200
2018-01-05T09:09:15.760Z,210
2018-01-05T09:09:45.012Z,210
2018-01-05T09:11:12.641Z,210
2018-01-05T09:11:41.263Z,205
2018-01-05T09:12:25.036Z,205
2018-01-05T09:13:23.372Z,205
2018-01-05T09:13:52.456Z,205
2018-01-05T09:15:18.309Z,210
2018-01-05T09:16:16.085Z,225
2018-01-05T09:18:11.097Z,215
2018-01-05T09:18:40.328Z,215
2018-01-05T09:19:23.548Z,215
2018-01-05T09:20:07.713Z,220
2018-01-05T09:20:51.228Z,215
2018-01-05T09:21:48.902Z,225
2018-01-05T09:23:30.957Z,240
2018-01-05T09:24:15.169Z,240
2018-01-05T09:24:44.391Z,240
2018-01-05T09:26:10.840Z,255
2018-01-05T09:26:40.333Z,255
2018-01-05T09:27:55.430Z,270
2018-01-05T09:28:40.088Z,270
2018-01-05T09:29:22.676Z,275
2018-01-05T09:30:07.553Z,275
2018-01-05T09:32:02.731Z,310
2018-01-05T09:32:32.350Z,310
2018-01-05T09:33:16.166Z,305
2018-01-05T09:33:59.466Z,320
2018-01-05T09:34:42.756Z,325
2018-01-05T09:35:27.474Z,315
2018-01-05T09:35:55.789Z,310
2018-01-05T09:36:38.720Z,310
2018-01-05T09:37:09.338Z,315
2018-01-05T09:37:37.957Z,315
2018-01-05T09:39:21.217Z,340
2018-01-05T09:41:01.646Z,360
2018-01-05T09:41:45.782Z,375
2018-01-05T09:42:15.148Z,385
2018-01-05T09:42:58.327Z,400
2018-01-05T09:43:43.178Z,405
2018-01-05T09:44:12.451Z,420
2018-01-05T09:44:40.859Z,440
2018-01-05T09:45:23.852Z,445
2018-01-05T09:46:07.086Z,465
2018-01-05T09:46:35.887Z,475
2018-01-05T09:47:19.184Z,490
2018-01-05T09:48:16.292Z,475
2018-01-05T09:48:48.076Z,500
2018-01-05T09:49:32.705Z,530
2018-01-05T09:50:02.402Z,540
2018-01-05T09:50:46.399Z,550
2018-01-05T09:51:30.551Z,580
2018-01-05T09:52:27.961Z,610
2018-01-05T09:53:10.506Z,600
2018-01-05T09:54:52.615Z,590
2018-01-05T09:56:39.171Z,585
2018-01-05T09:57:07.839Z,605
2018-01-05T09:57:35.818Z,595
2018-01-05T09:58:06.646Z,595
2018-01-05T09:58:37.228Z,605
2018-01-05T09:59:20.613Z,660
2018-01-05T10:00:04.853Z,665
2018-01-05T10:00:49.350Z,675
2018-01-05T10:01:48.017Z,690
2018-01-05T10:02:17.102Z,695
2018-01-05T10:03:00.424Z,695
2018-01-05T10:04:12.847Z,705
2018-01-05T10:04:55.390Z,705
2018-01-05T10:06:09.226Z,690
2018-01-05T10:06:39.232Z,685
2018-01-05T10:07:23.122Z,680
2018-01-05T10:08:06.870Z,700
2018-01-05T10:10:32.719Z,705
2018-01-05T10:11:16.782Z,710
2018-01-05T10:12:01.702Z,710
2018-01-05T10:12:33.042Z,690
2018-01-05T10:13:18.379Z,685
2018-01-05T10:13:49.112Z,670
2018-01-05T10:14:33.457Z,730
2018-01-05T10:15:03.697Z,705
2018-01-05T10:16:01.801Z,745
2018-01-05T10:16:30.969Z,735
2018-01-05T10:18:01.309Z,760
2018-01-05T10:18:29.273Z,760
2018-01-05T10:19:26.359Z,750
2018-01-05T10:20:37.990Z,730
2018-01-05T10:22:05.738Z,725
2018-01-05T10:22:36.996Z,735
2018-01-05T10:24:04.078Z,765
2018-01-05T10:24:33.279Z,775
2018-01-05T10:25:01.729Z,775
2018-01-05T10:25:31.618Z,765
2018-01-05T10:25:59.993Z,760
2018-01-05T10:26:44.185Z,755
2018-01-05T10:27:41.696Z,770
2018-01-05T10:28:39.286Z,790
2018-01-05T10:29:22.892Z,795
2018-01-05T10:29:51.123Z,795
2018-01-05T10:30:48.624Z,780
2018-01-05T10:31:16.696Z,775
2018-01-05T10:31:45.945Z,765
2018-01-05T10:32:13.990Z,780
2018-01-05T10:32:56.766Z,780
2018-01-05T10:35:41.293Z,790
2018-01-05T10:36:24.712Z,805
2018-01-05T10:37:42.397Z,790
2018-01-05T10:39:44.581Z,705
2018-01-05T10:40:28.775Z,690
2018-01-05T10:40:57.648Z,670
2018-01-05T10:41:26.107Z,685
2018-01-05T10:42:09.329Z,690
2018-01-05T10:42:38.408Z,700
2018-01-05T10:43:21.165Z,735
2018-01-05T10:44:04.952Z,750
2018-01-05T10:44:38.065Z,705
2018-01-05T10:45:21.708Z,710
2018-01-05T10:46:04.703Z,715
2018-01-05T10:46:33.547Z,720
2018-01-05T10:47:18.222Z,790
2018-01-05T10:48:02.449Z,795
2018-01-05T10:49:32.925Z,755
2018-01-05T10:50:44.425Z,725
2018-01-05T10:53:39.829Z,860
2018-01-05T10:55:35.417Z,870
2018-01-05T10:56:35.575Z,850
2018-01-05T10:57:33.250Z,820
2018-01-05T11:00:39.840Z,860
2018-01-05T11:01:37.894Z,860
2018-01-05T11:04:16.617Z,895
2018-01-05T11:04:59.108Z,915
2018-01-05T11:05:42.084Z,900
2018-01-05T11:07:22.677Z,890
2018-01-05T11:08:05.278Z,895
2018-01-05T11:08:34.528Z,900
2018-01-05T11:09:03.042Z,890
2018-01-05T11:10:01.534Z,910
2018-01-05T11:10:44.460Z,900
2018-01-05T11:11:56.540Z,880
2018-01-05T11:12:39.132Z,895
2018-01-05T11:13:50.729Z,865
2018-01-05T11:14:33.751Z,775
2018-01-05T11:15:32.459Z,785
2018-01-05T11:16:03.771Z,845
2018-01-05T11:17:01.858Z,865
2018-01-05T11:17:59.512Z,900
2018-01-05T11:18:57.434Z,920
2018-01-05T11:20:40.380Z,915
2018-01-05T11:21:38.399Z,905